sensor_id;sensor_type;location;lat;lon;timestamp;P1;durP1;ratioP1;P2;durP2;ratioP2
47025;SDS011;32783;51.756;-2.556;2022-11-20T00:06:16;3.92;;;3.08;;
47025;SDS011;32783;51.756;-2.556;2022-11-20T00:08:43;3.58;;;3.08;;
47025;SDS011;32783;51.756;-2.556;2022-11-20T00:11:10;4.30;;;3.70;;
47025;SDS011;32783;51.756;-2.556;2022-11-20T00:13:37;3.72;;;3.42;;
47025;SDS011;32783;51.756;-2.556;2022-11-20T00:16:03;4.90;;;3.15;;
47025;SDS011;32783;51.756;-2.556;2022-11-20T00:18:30;3.53;;;3.22;;
47025;SDS011;32783;51.756;-2.556;2022-11-20T00:21:02;3.70;;;3.40;;
47025;SDS011;32783;51.756;-2.556;2022-11-20T00:23:29;3.42;;;3.00;;
47025;SDS011;32783;51.756;-2.556;2022-11-20T00:25:54;4.35;;;3.70;;
47025;SDS011;32783;51.756;-2.556;2022-11-20T00:28:20;3.90;;;3.53;;
47025;SDS011;32783;51.756;-2.556;2022-11-20T00:30:45;3.35;;;3.05;;
47025;SDS011;32783;51.756;-2.556;2022-11-20T00:33:10;4.18;;;3.78;;
47025;SDS011;32783;51.756;-2.556;2022-11-20T00:35:36;3.97;;;3.58;;
47025;SDS011;32783;51.756;-2.556;2022-11-20T00:38:01;3.75;;;3.45;;
47025;SDS011;32783;51.756;-2.556;2022-11-20T00:40:27;3.92;;;3.53;;
47025;SDS011;32783;51.756;-2.556;2022-11-20T00:42:52;3.50;;;3.20;;
47025;SDS011;32783;51.756;-2.556;2022-11-20T00:45:17;4.05;;;3.17;;
47025;SDS011;32783;51.756;-2.556;2022-11-20T00:47:43;3.58;;;3.13;;
47025;SDS011;32783;51.756;-2.556;2022-11-20T00:50:08;3.38;;;3.08;;
47025;SDS011;32783;51.756;-2.556;2022-11-20T00:52:33;3.67;;;2.97;;
47025;SDS011;32783;51.756;-2.556;2022-11-20T00:54:59;3.63;;;3.08;;
47025;SDS011;32783;51.756;-2.556;2022-11-20T00:57:24;3.35;;;3.10;;
47025;SDS011;32783;51.756;-2.556;2022-11-20T00:59:50;3.33;;;3.03;;
47025;SDS011;32783;51.756;-2.556;2022-11-20T01:02:15;3.65;;;3.25;;
47025;SDS011;32783;51.756;-2.556;2022-11-20T01:04:41;2.97;;;2.67;;
47025;SDS011;32783;51.756;-2.556;2022-11-20T01:07:07;3.50;;;3.20;;
47025;SDS011;32783;51.756;-2.556;2022-11-20T01:09:32;4.05;;;3.20;;
47025;SDS011;32783;51.756;-2.556;2022-11-20T01:11:58;2.97;;;2.75;;
47025;SDS011;32783;51.756;-2.556;2022-11-20T01:14:24;3.58;;;3.10;;
47025;SDS011;32783;51.756;-2.556;2022-11-20T01:16:50;2.70;;;2.40;;
47025;SDS011;32783;51.756;-2.556;2022-11-20T01:19:22;3.25;;;2.95;;
47025;SDS011;32783;51.756;-2.556;2022-11-20T01:21:49;3.30;;;2.88;;
47025;SDS011;32783;51.756;-2.556;2022-11-20T01:24:17;3.00;;;2.70;;
47025;SDS011;32783;51.756;-2.556;2022-11-20T01:26:44;3.08;;;2.50;;
47025;SDS011;32783;51.756;-2.556;2022-11-20T01:29:13;3.20;;;2.50;;
47025;SDS011;32783;51.756;-2.556;2022-11-20T01:31:40;3.00;;;2.70;;
47025;SDS011;32783;51.756;-2.556;2022-11-20T01:34:09;2.65;;;2.45;;
47025;SDS011;32783;51.756;-2.556;2022-11-20T01:36:37;2.30;;;2.10;;
47025;SDS011;32783;51.756;-2.556;2022-11-20T01:39:04;2.40;;;2.17;;
47025;SDS011;32783;51.756;-2.556;2022-11-20T01:41:32;2.78;;;2.53;;
47025;SDS011;32783;51.756;-2.556;2022-11-20T01:44:17;2.50;;;2.25;;
47025;SDS011;32783;51.756;-2.556;2022-11-20T01:46:59;2.10;;;1.90;;
47025;SDS011;32783;51.756;-2.556;2022-11-20T01:49:32;2.28;;;2.08;;
47025;SDS011;32783;51.756;-2.556;2022-11-20T01:52:02;3.05;;;2.22;;
47025;SDS011;32783;51.756;-2.556;2022-11-20T01:54:32;2.13;;;1.92;;
47025;SDS011;32783;51.756;-2.556;2022-11-20T01:57:00;2.28;;;2.08;;
47025;SDS011;32783;51.756;-2.556;2022-11-20T01:59:27;1.90;;;1.70;;
47025;SDS011;32783;51.756;-2.556;2022-11-20T02:01:53;2.30;;;1.98;;
47025;SDS011;32783;51.756;-2.556;2022-11-20T02:04:19;2.20;;;2.00;;
47025;SDS011;32783;51.756;-2.556;2022-11-20T02:09:11;2.90;;;1.98;;
47025;SDS011;32783;51.756;-2.556;2022-11-20T02:11:37;1.70;;;1.60;;
47025;SDS011;32783;51.756;-2.556;2022-11-20T02:14:02;2.10;;;1.90;;
47025;SDS011;32783;51.756;-2.556;2022-11-20T02:16:30;2.40;;;2.05;;
47025;SDS011;32783;51.756;-2.556;2022-11-20T02:18:58;2.23;;;2.03;;
47025;SDS011;32783;51.756;-2.556;2022-11-20T02:21:36;2.40;;;2.03;;
47025;SDS011;32783;51.756;-2.556;2022-11-20T02:24:15;2.15;;;1.95;;
47025;SDS011;32783;51.756;-2.556;2022-11-20T02:26:42;1.88;;;1.73;;
47025;SDS011;32783;51.756;-2.556;2022-11-20T02:29:09;2.45;;;2.25;;
47025;SDS011;32783;51.756;-2.556;2022-11-20T02:31:38;1.60;;;1.50;;
47025;SDS011;32783;51.756;-2.556;2022-11-20T02:34:05;2.10;;;1.70;;
47025;SDS011;32783;51.756;-2.556;2022-11-20T02:36:31;2.20;;;2.00;;
47025;SDS011;32783;51.756;-2.556;2022-11-20T02:38:58;2.08;;;1.80;;
47025;SDS011;32783;51.756;-2.556;2022-11-20T02:41:31;2.13;;;1.92;;
47025;SDS011;32783;51.756;-2.556;2022-11-20T02:44:00;1.83;;;1.65;;
47025;SDS011;32783;51.756;-2.556;2022-11-20T02:46:26;1.85;;;1.65;;
47025;SDS011;32783;51.756;-2.556;2022-11-20T02:48:51;1.38;;;1.27;;
47025;SDS011;32783;51.756;-2.556;2022-11-20T02:51:16;2.10;;;1.67;;
47025;SDS011;32783;51.756;-2.556;2022-11-20T02:53:42;2.45;;;1.80;;
47025;SDS011;32783;51.756;-2.556;2022-11-20T02:56:07;1.65;;;1.35;;
47025;SDS011;32783;51.756;-2.556;2022-11-20T02:58:32;2.25;;;1.75;;
47025;SDS011;32783;51.756;-2.556;2022-11-20T03:00:58;1.70;;;1.60;;
47025;SDS011;32783;51.756;-2.556;2022-11-20T03:03:23;1.50;;;1.40;;
47025;SDS011;32783;51.756;-2.556;2022-11-20T03:05:49;1.70;;;1.50;;
47025;SDS011;32783;51.756;-2.556;2022-11-20T03:08:14;1.30;;;1.20;;
47025;SDS011;32783;51.756;-2.556;2022-11-20T03:10:39;1.70;;;1.60;;
47025;SDS011;32783;51.756;-2.556;2022-11-20T03:13:05;1.67;;;1.40;;
47025;SDS011;32783;51.756;-2.556;2022-11-20T03:15:30;1.50;;;1.40;;
47025;SDS011;32783;51.756;-2.556;2022-11-20T03:17:56;1.20;;;1.10;;
47025;SDS011;32783;51.756;-2.556;2022-11-20T03:20:21;1.65;;;1.45;;
47025;SDS011;32783;51.756;-2.556;2022-11-20T03:22:47;1.75;;;1.45;;
47025;SDS011;32783;51.756;-2.556;2022-11-20T03:25:12;2.20;;;1.48;;
47025;SDS011;32783;51.756;-2.556;2022-11-20T03:27:37;1.33;;;1.20;;
47025;SDS011;32783;51.756;-2.556;2022-11-20T03:30:03;1.40;;;1.30;;
47025;SDS011;32783;51.756;-2.556;2022-11-20T03:32:29;1.40;;;1.30;;
47025;SDS011;32783;51.756;-2.556;2022-11-20T03:34:54;1.40;;;1.20;;
47025;SDS011;32783;51.756;-2.556;2022-11-20T03:37:20;1.98;;;1.77;;
47025;SDS011;32783;51.756;-2.556;2022-11-20T03:39:45;1.38;;;1.13;;
47025;SDS011;32783;51.756;-2.556;2022-11-20T03:42:10;1.25;;;1.15;;
47025;SDS011;32783;51.756;-2.556;2022-11-20T03:44:56;1.30;;;1.20;;
47025;SDS011;32783;51.756;-2.556;2022-11-20T03:47:21;1.42;;;1.33;;
47025;SDS011;32783;51.756;-2.556;2022-11-20T03:49:46;1.73;;;1.40;;
47025;SDS011;32783;51.756;-2.556;2022-11-20T03:52:12;1.40;;;1.10;;
47025;SDS011;32783;51.756;-2.556;2022-11-20T03:54:37;1.23;;;1.10;;
47025;SDS011;32783;51.756;-2.556;2022-11-20T03:57:03;1.33;;;1.20;;
47025;SDS011;32783;51.756;-2.556;2022-11-20T03:59:28;1.27;;;1.17;;
47025;SDS011;32783;51.756;-2.556;2022-11-20T04:01:54;1.17;;;1.00;;
47025;SDS011;32783;51.756;-2.556;2022-11-20T04:04:19;1.00;;;0.90;;
47025;SDS011;32783;51.756;-2.556;2022-11-20T04:06:44;0.95;;;0.90;;
47025;SDS011;32783;51.756;-2.556;2022-11-20T04:09:10;0.93;;;0.93;;
47025;SDS011;32783;51.756;-2.556;2022-11-20T04:11:36;1.05;;;0.90;;
47025;SDS011;32783;51.756;-2.556;2022-11-20T04:14:05;0.80;;;0.80;;
47025;SDS011;32783;51.756;-2.556;2022-11-20T04:16:32;1.33;;;1.00;;
47025;SDS011;32783;51.756;-2.556;2022-11-20T04:19:00;1.10;;;1.00;;
47025;SDS011;32783;51.756;-2.556;2022-11-20T04:21:27;1.10;;;1.00;;
47025;SDS011;32783;51.756;-2.556;2022-11-20T04:23:53;1.55;;;1.30;;
47025;SDS011;32783;51.756;-2.556;2022-11-20T04:26:19;1.27;;;1.17;;
47025;SDS011;32783;51.756;-2.556;2022-11-20T04:28:46;1.10;;;1.00;;
47025;SDS011;32783;51.756;-2.556;2022-11-20T04:31:15;0.98;;;0.88;;
47025;SDS011;32783;51.756;-2.556;2022-11-20T04:33:45;0.82;;;0.77;;
47025;SDS011;32783;51.756;-2.556;2022-11-20T04:36:21;0.70;;;0.63;;
47025;SDS011;32783;51.756;-2.556;2022-11-20T04:38:54;1.08;;;0.95;;
47025;SDS011;32783;51.756;-2.556;2022-11-20T04:41:30;0.88;;;0.70;;
47025;SDS011;32783;51.756;-2.556;2022-11-20T04:43:58;0.90;;;0.77;;
47025;SDS011;32783;51.756;-2.556;2022-11-20T04:46:27;0.77;;;0.77;;
47025;SDS011;32783;51.756;-2.556;2022-11-20T04:48:53;0.70;;;0.70;;
47025;SDS011;32783;51.756;-2.556;2022-11-20T04:51:19;0.88;;;0.80;;
47025;SDS011;32783;51.756;-2.556;2022-11-20T04:53:44;1.10;;;0.80;;
47025;SDS011;32783;51.756;-2.556;2022-11-20T04:56:10;0.82;;;0.80;;
47025;SDS011;32783;51.756;-2.556;2022-11-20T04:58:36;1.20;;;1.10;;
47025;SDS011;32783;51.756;-2.556;2022-11-20T05:03:41;0.75;;;0.70;;
47025;SDS011;32783;51.756;-2.556;2022-11-20T05:06:08;1.10;;;0.70;;
47025;SDS011;32783;51.756;-2.556;2022-11-20T05:08:34;1.10;;;0.93;;
47025;SDS011;32783;51.756;-2.556;2022-11-20T05:11:12;0.70;;;0.65;;
47025;SDS011;32783;51.756;-2.556;2022-11-20T05:13:39;0.70;;;0.70;;
47025;SDS011;32783;51.756;-2.556;2022-11-20T05:16:15;0.90;;;0.80;;
47025;SDS011;32783;51.756;-2.556;2022-11-20T05:18:42;0.63;;;0.63;;
47025;SDS011;32783;51.756;-2.556;2022-11-20T05:21:08;0.65;;;0.65;;
47025;SDS011;32783;51.756;-2.556;2022-11-20T05:23:34;1.10;;;0.90;;
47025;SDS011;32783;51.756;-2.556;2022-11-20T05:26:01;0.65;;;0.57;;
47025;SDS011;32783;51.756;-2.556;2022-11-20T05:28:27;1.00;;;0.77;;
47025;SDS011;32783;51.756;-2.556;2022-11-20T05:30:53;1.02;;;0.52;;
47025;SDS011;32783;51.756;-2.556;2022-11-20T05:33:19;0.70;;;0.70;;
47025;SDS011;32783;51.756;-2.556;2022-11-20T05:35:45;0.65;;;0.65;;
47025;SDS011;32783;51.756;-2.556;2022-11-20T05:38:11;0.60;;;0.60;;
47025;SDS011;32783;51.756;-2.556;2022-11-20T05:40:36;0.70;;;0.70;;
47025;SDS011;32783;51.756;-2.556;2022-11-20T05:43:02;0.63;;;0.55;;
47025;SDS011;32783;51.756;-2.556;2022-11-20T05:45:27;1.00;;;0.73;;
47025;SDS011;32783;51.756;-2.556;2022-11-20T05:47:53;0.95;;;0.73;;
47025;SDS011;32783;51.756;-2.556;2022-11-20T05:50:18;0.80;;;0.65;;
47025;SDS011;32783;51.756;-2.556;2022-11-20T05:52:43;0.88;;;0.70;;
47025;SDS011;32783;51.756;-2.556;2022-11-20T05:55:09;0.60;;;0.50;;
47025;SDS011;32783;51.756;-2.556;2022-11-20T05:57:34;1.08;;;1.00;;
47025;SDS011;32783;51.756;-2.556;2022-11-20T06:00:00;0.70;;;0.50;;
47025;SDS011;32783;51.756;-2.556;2022-11-20T06:02:25;0.70;;;0.70;;
47025;SDS011;32783;51.756;-2.556;2022-11-20T06:04:51;0.50;;;0.50;;
47025;SDS011;32783;51.756;-2.556;2022-11-20T06:07:16;0.47;;;0.45;;
47025;SDS011;32783;51.756;-2.556;2022-11-20T06:09:42;0.60;;;0.50;;
47025;SDS011;32783;51.756;-2.556;2022-11-20T06:12:07;0.50;;;0.50;;
47025;SDS011;32783;51.756;-2.556;2022-11-20T06:14:33;0.70;;;0.60;;
47025;SDS011;32783;51.756;-2.556;2022-11-20T06:16:58;0.50;;;0.50;;
47025;SDS011;32783;51.756;-2.556;2022-11-20T06:19:24;0.50;;;0.50;;
47025;SDS011;32783;51.756;-2.556;2022-11-20T06:21:49;0.60;;;0.50;;
47025;SDS011;32783;51.756;-2.556;2022-11-20T06:24:15;0.63;;;0.40;;
47025;SDS011;32783;51.756;-2.556;2022-11-20T06:26:41;0.43;;;0.40;;
47025;SDS011;32783;51.756;-2.556;2022-11-20T06:29:07;0.45;;;0.45;;
47025;SDS011;32783;51.756;-2.556;2022-11-20T06:31:32;0.60;;;0.55;;
47025;SDS011;32783;51.756;-2.556;2022-11-20T06:34:00;0.60;;;0.40;;
47025;SDS011;32783;51.756;-2.556;2022-11-20T06:36:26;0.50;;;0.50;;
47025;SDS011;32783;51.756;-2.556;2022-11-20T06:38:51;0.50;;;0.43;;
47025;SDS011;32783;51.756;-2.556;2022-11-20T06:41:18;0.60;;;0.50;;
47025;SDS011;32783;51.756;-2.556;2022-11-20T06:43:45;0.75;;;0.65;;
47025;SDS011;32783;51.756;-2.556;2022-11-20T06:46:11;0.50;;;0.47;;
47025;SDS011;32783;51.756;-2.556;2022-11-20T06:48:37;0.57;;;0.50;;
47025;SDS011;32783;51.756;-2.556;2022-11-20T06:51:03;0.40;;;0.40;;
47025;SDS011;32783;51.756;-2.556;2022-11-20T06:53:30;1.17;;;0.50;;
47025;SDS011;32783;51.756;-2.556;2022-11-20T06:55:55;0.95;;;0.80;;
47025;SDS011;32783;51.756;-2.556;2022-11-20T06:58:22;0.65;;;0.60;;
47025;SDS011;32783;51.756;-2.556;2022-11-20T07:00:47;6.20;;;0.98;;
47025;SDS011;32783;51.756;-2.556;2022-11-20T07:03:13;0.30;;;0.28;;
47025;SDS011;32783;51.756;-2.556;2022-11-20T07:05:38;0.60;;;0.55;;
47025;SDS011;32783;51.756;-2.556;2022-11-20T07:08:05;0.40;;;0.40;;
47025;SDS011;32783;51.756;-2.556;2022-11-20T07:10:31;0.32;;;0.32;;
47025;SDS011;32783;51.756;-2.556;2022-11-20T07:12:57;0.30;;;0.30;;
47025;SDS011;32783;51.756;-2.556;2022-11-20T07:15:23;0.30;;;0.30;;
47025;SDS011;32783;51.756;-2.556;2022-11-20T07:17:49;0.40;;;0.30;;
47025;SDS011;32783;51.756;-2.556;2022-11-20T07:20:15;0.35;;;0.35;;
47025;SDS011;32783;51.756;-2.556;2022-11-20T07:22:40;0.50;;;0.38;;
47025;SDS011;32783;51.756;-2.556;2022-11-20T07:25:06;0.80;;;0.40;;
47025;SDS011;32783;51.756;-2.556;2022-11-20T07:27:32;0.30;;;0.30;;
47025;SDS011;32783;51.756;-2.556;2022-11-20T07:29:58;0.30;;;0.30;;
47025;SDS011;32783;51.756;-2.556;2022-11-20T07:32:23;0.40;;;0.40;;
47025;SDS011;32783;51.756;-2.556;2022-11-20T07:34:49;0.57;;;0.50;;
47025;SDS011;32783;51.756;-2.556;2022-11-20T07:37:14;0.30;;;0.30;;
47025;SDS011;32783;51.756;-2.556;2022-11-20T07:39:40;0.40;;;0.40;;
47025;SDS011;32783;51.756;-2.556;2022-11-20T07:42:06;0.22;;;0.22;;
47025;SDS011;32783;51.756;-2.556;2022-11-20T07:44:32;0.40;;;0.40;;
47025;SDS011;32783;51.756;-2.556;2022-11-20T07:46:57;0.30;;;0.22;;
47025;SDS011;32783;51.756;-2.556;2022-11-20T07:49:22;0.40;;;0.40;;
47025;SDS011;32783;51.756;-2.556;2022-11-20T07:51:50;0.50;;;0.28;;
47025;SDS011;32783;51.756;-2.556;2022-11-20T07:54:16;1.48;;;0.40;;
47025;SDS011;32783;51.756;-2.556;2022-11-20T07:56:41;0.40;;;0.25;;
47025;SDS011;32783;51.756;-2.556;2022-11-20T07:59:07;1.13;;;0.43;;
47025;SDS011;32783;51.756;-2.556;2022-11-20T08:01:32;1.92;;;0.43;;
47025;SDS011;32783;51.756;-2.556;2022-11-20T08:03:58;1.20;;;0.55;;
47025;SDS011;32783;51.756;-2.556;2022-11-20T08:06:23;0.50;;;0.50;;
47025;SDS011;32783;51.756;-2.556;2022-11-20T08:08:49;1.50;;;0.50;;
47025;SDS011;32783;51.756;-2.556;2022-11-20T08:11:15;3.13;;;0.40;;
47025;SDS011;32783;51.756;-2.556;2022-11-20T08:13:59;1.00;;;0.32;;
47025;SDS011;32783;51.756;-2.556;2022-11-20T08:16:36;0.70;;;0.45;;
47025;SDS011;32783;51.756;-2.556;2022-11-20T08:19:02;1.45;;;0.25;;
47025;SDS011;32783;51.756;-2.556;2022-11-20T08:21:29;1.45;;;0.50;;
47025;SDS011;32783;51.756;-2.556;2022-11-20T08:23:55;1.00;;;0.45;;
47025;SDS011;32783;51.756;-2.556;2022-11-20T08:26:22;3.13;;;0.30;;
47025;SDS011;32783;51.756;-2.556;2022-11-20T08:28:48;1.15;;;0.20;;
47025;SDS011;32783;51.756;-2.556;2022-11-20T08:31:13;0.40;;;0.30;;
47025;SDS011;32783;51.756;-2.556;2022-11-20T08:33:39;0.43;;;0.30;;
47025;SDS011;32783;51.756;-2.556;2022-11-20T08:36:04;0.60;;;0.40;;
47025;SDS011;32783;51.756;-2.556;2022-11-20T08:38:30;1.00;;;0.57;;
47025;SDS011;32783;51.756;-2.556;2022-11-20T08:40:57;0.80;;;0.40;;
47025;SDS011;32783;51.756;-2.556;2022-11-20T08:43:43;1.55;;;0.57;;
47025;SDS011;32783;51.756;-2.556;2022-11-20T08:46:09;2.25;;;0.50;;
47025;SDS011;32783;51.756;-2.556;2022-11-20T08:48:34;2.72;;;0.45;;
47025;SDS011;32783;51.756;-2.556;2022-11-20T08:51:00;3.00;;;0.35;;
47025;SDS011;32783;51.756;-2.556;2022-11-20T08:53:25;3.20;;;1.27;;
47025;SDS011;32783;51.756;-2.556;2022-11-20T08:55:51;6.53;;;0.93;;
47025;SDS011;32783;51.756;-2.556;2022-11-20T08:58:17;7.07;;;1.15;;
47025;SDS011;32783;51.756;-2.556;2022-11-20T09:00:42;5.47;;;0.70;;
47025;SDS011;32783;51.756;-2.556;2022-11-20T09:03:08;8.85;;;0.90;;
47025;SDS011;32783;51.756;-2.556;2022-11-20T09:05:33;4.45;;;0.60;;
47025;SDS011;32783;51.756;-2.556;2022-11-20T09:07:59;2.22;;;0.63;;
47025;SDS011;32783;51.756;-2.556;2022-11-20T09:10:25;8.27;;;1.42;;
47025;SDS011;32783;51.756;-2.556;2022-11-20T09:12:51;9.50;;;0.90;;
47025;SDS011;32783;51.756;-2.556;2022-11-20T09:15:17;3.17;;;0.70;;
47025;SDS011;32783;51.756;-2.556;2022-11-20T09:17:50;5.97;;;1.30;;
47025;SDS011;32783;51.756;-2.556;2022-11-20T09:20:16;4.88;;;0.65;;
47025;SDS011;32783;51.756;-2.556;2022-11-20T09:22:42;7.38;;;1.67;;
47025;SDS011;32783;51.756;-2.556;2022-11-20T09:25:07;8.25;;;1.95;;
47025;SDS011;32783;51.756;-2.556;2022-11-20T09:27:33;8.52;;;2.17;;
47025;SDS011;32783;51.756;-2.556;2022-11-20T09:29:58;4.15;;;1.42;;
47025;SDS011;32783;51.756;-2.556;2022-11-20T09:32:24;7.13;;;0.90;;
47025;SDS011;32783;51.756;-2.556;2022-11-20T09:34:49;2.28;;;0.70;;
47025;SDS011;32783;51.756;-2.556;2022-11-20T09:37:14;4.93;;;1.33;;
47025;SDS011;32783;51.756;-2.556;2022-11-20T09:39:40;5.65;;;1.25;;
47025;SDS011;32783;51.756;-2.556;2022-11-20T09:47:21;4.77;;;0.90;;
47025;SDS011;32783;51.756;-2.556;2022-11-20T09:55:24;3.70;;;0.95;;
47025;SDS011;32783;51.756;-2.556;2022-11-20T09:57:51;6.18;;;0.90;;
47025;SDS011;32783;51.756;-2.556;2022-11-20T10:00:16;4.60;;;0.90;;
47025;SDS011;32783;51.756;-2.556;2022-11-20T10:05:30;1.55;;;0.98;;
47025;SDS011;32783;51.756;-2.556;2022-11-20T10:10:45;2.97;;;1.25;;
47025;SDS011;32783;51.756;-2.556;2022-11-20T10:18:54;2.05;;;1.23;;
47025;SDS011;32783;51.756;-2.556;2022-11-20T10:24:10;4.05;;;1.25;;
47025;SDS011;32783;51.756;-2.556;2022-11-20T10:30:02;2.17;;;1.38;;
47025;SDS011;32783;51.756;-2.556;2022-11-20T10:32:37;2.60;;;1.30;;
47025;SDS011;32783;51.756;-2.556;2022-11-20T10:35:05;1.88;;;1.40;;
47025;SDS011;32783;51.756;-2.556;2022-11-20T10:37:48;1.48;;;1.10;;
47025;SDS011;32783;51.756;-2.556;2022-11-20T10:42:53;1.48;;;1.20;;
47025;SDS011;32783;51.756;-2.556;2022-11-20T10:48:04;1.52;;;1.10;;
47025;SDS011;32783;51.756;-2.556;2022-11-20T10:50:37;2.40;;;0.98;;
47025;SDS011;32783;51.756;-2.556;2022-11-20T10:53:08;2.58;;;0.98;;
47025;SDS011;32783;51.756;-2.556;2022-11-20T10:55:50;2.13;;;1.23;;
47025;SDS011;32783;51.756;-2.556;2022-11-20T11:01:05;1.40;;;1.08;;
47025;SDS011;32783;51.756;-2.556;2022-11-20T11:03:31;2.55;;;1.00;;
47025;SDS011;32783;51.756;-2.556;2022-11-20T11:08:41;4.25;;;1.25;;
47025;SDS011;32783;51.756;-2.556;2022-11-20T11:13:44;1.00;;;0.95;;
47025;SDS011;32783;51.756;-2.556;2022-11-20T11:16:17;1.60;;;1.00;;
47025;SDS011;32783;51.756;-2.556;2022-11-20T11:18:45;1.95;;;1.00;;
47025;SDS011;32783;51.756;-2.556;2022-11-20T11:21:11;1.00;;;0.82;;
47025;SDS011;32783;51.756;-2.556;2022-11-20T11:26:06;1.75;;;1.38;;
47025;SDS011;32783;51.756;-2.556;2022-11-20T11:28:42;1.73;;;1.23;;
47025;SDS011;32783;51.756;-2.556;2022-11-20T11:31:28;1.70;;;1.30;;
47025;SDS011;32783;51.756;-2.556;2022-11-20T11:36:34;1.67;;;1.10;;
47025;SDS011;32783;51.756;-2.556;2022-11-20T11:39:00;1.25;;;0.82;;
47025;SDS011;32783;51.756;-2.556;2022-11-20T11:41:28;1.23;;;0.80;;
47025;SDS011;32783;51.756;-2.556;2022-11-20T11:43:57;1.33;;;0.90;;
47025;SDS011;32783;51.756;-2.556;2022-11-20T11:46:54;2.03;;;1.08;;
47025;SDS011;32783;51.756;-2.556;2022-11-20T11:49:24;1.05;;;0.95;;
47025;SDS011;32783;51.756;-2.556;2022-11-20T11:54:53;4.13;;;1.05;;
47025;SDS011;32783;51.756;-2.556;2022-11-20T12:00:10;1.52;;;0.93;;
47025;SDS011;32783;51.756;-2.556;2022-11-20T12:03:02;1.70;;;0.90;;
47025;SDS011;32783;51.756;-2.556;2022-11-20T12:05:24;3.85;;;1.38;;
47025;SDS011;32783;51.756;-2.556;2022-11-20T12:10:46;4.70;;;1.30;;
47025;SDS011;32783;51.756;-2.556;2022-11-20T12:15:56;4.47;;;1.50;;
47025;SDS011;32783;51.756;-2.556;2022-11-20T12:18:21;3.22;;;1.48;;
47025;SDS011;32783;51.756;-2.556;2022-11-20T12:21:11;4.00;;;1.10;;
47025;SDS011;32783;51.756;-2.556;2022-11-20T12:37:19;3.60;;;1.40;;
47025;SDS011;32783;51.756;-2.556;2022-11-20T12:42:55;3.38;;;1.50;;
47025;SDS011;32783;51.756;-2.556;2022-11-20T12:56:47;4.70;;;1.42;;
47025;SDS011;32783;51.756;-2.556;2022-11-20T13:04:33;4.82;;;1.50;;
47025;SDS011;32783;51.756;-2.556;2022-11-20T13:07:21;6.22;;;1.50;;
47025;SDS011;32783;51.756;-2.556;2022-11-20T13:09:49;3.88;;;1.42;;
47025;SDS011;32783;51.756;-2.556;2022-11-20T13:15:14;2.22;;;1.17;;
47025;SDS011;32783;51.756;-2.556;2022-11-20T13:17:37;2.53;;;1.20;;
47025;SDS011;32783;51.756;-2.556;2022-11-20T13:20:11;2.45;;;1.25;;
47025;SDS011;32783;51.756;-2.556;2022-11-20T13:22:44;6.22;;;2.00;;
47025;SDS011;32783;51.756;-2.556;2022-11-20T13:27:54;4.00;;;1.10;;
47025;SDS011;32783;51.756;-2.556;2022-11-20T13:30:22;7.43;;;1.50;;
47025;SDS011;32783;51.756;-2.556;2022-11-20T13:35:37;6.55;;;1.77;;
47025;SDS011;32783;51.756;-2.556;2022-11-20T13:38:09;4.57;;;1.45;;
47025;SDS011;32783;51.756;-2.556;2022-11-20T13:40:37;5.72;;;1.67;;
47025;SDS011;32783;51.756;-2.556;2022-11-20T13:45:57;9.20;;;1.42;;
47025;SDS011;32783;51.756;-2.556;2022-11-20T13:48:28;6.35;;;1.20;;
47025;SDS011;32783;51.756;-2.556;2022-11-20T14:02:18;5.15;;;1.50;;
47025;SDS011;32783;51.756;-2.556;2022-11-20T14:04:48;7.10;;;1.88;;
47025;SDS011;32783;51.756;-2.556;2022-11-20T14:07:15;6.60;;;1.50;;
47025;SDS011;32783;51.756;-2.556;2022-11-20T14:09:49;3.03;;;1.08;;
47025;SDS011;32783;51.756;-2.556;2022-11-20T14:12:19;6.53;;;1.30;;
47025;SDS011;32783;51.756;-2.556;2022-11-20T14:14:48;3.10;;;0.90;;
47025;SDS011;32783;51.756;-2.556;2022-11-20T14:17:19;4.22;;;1.13;;
47025;SDS011;32783;51.756;-2.556;2022-11-20T14:19:47;4.13;;;0.93;;
47025;SDS011;32783;51.756;-2.556;2022-11-20T14:25:00;3.78;;;1.10;;
47025;SDS011;32783;51.756;-2.556;2022-11-20T14:27:39;4.75;;;1.10;;
47025;SDS011;32783;51.756;-2.556;2022-11-20T14:30:06;6.60;;;1.23;;
47025;SDS011;32783;51.756;-2.556;2022-11-20T14:32:39;7.72;;;1.10;;
47025;SDS011;32783;51.756;-2.556;2022-11-20T14:35:08;2.75;;;0.95;;
47025;SDS011;32783;51.756;-2.556;2022-11-20T14:37:36;8.07;;;1.33;;
47025;SDS011;32783;51.756;-2.556;2022-11-20T14:40:02;6.60;;;0.93;;
47025;SDS011;32783;51.756;-2.556;2022-11-20T14:42:30;3.72;;;0.80;;
47025;SDS011;32783;51.756;-2.556;2022-11-20T14:44:57;6.90;;;1.10;;
47025;SDS011;32783;51.756;-2.556;2022-11-20T14:47:27;2.75;;;0.90;;
47025;SDS011;32783;51.756;-2.556;2022-11-20T14:49:55;4.32;;;1.33;;
47025;SDS011;32783;51.756;-2.556;2022-11-20T14:52:21;1.98;;;1.00;;
47025;SDS011;32783;51.756;-2.556;2022-11-20T14:54:49;8.93;;;0.98;;
47025;SDS011;32783;51.756;-2.556;2022-11-20T14:57:34;1.33;;;0.70;;
47025;SDS011;32783;51.756;-2.556;2022-11-20T15:02:47;4.05;;;1.27;;
47025;SDS011;32783;51.756;-2.556;2022-11-20T15:05:14;4.03;;;0.85;;
47025;SDS011;32783;51.756;-2.556;2022-11-20T15:07:44;2.70;;;0.60;;
47025;SDS011;32783;51.756;-2.556;2022-11-20T15:10:21;4.00;;;0.98;;
47025;SDS011;32783;51.756;-2.556;2022-11-20T15:12:49;2.33;;;1.02;;
47025;SDS011;32783;51.756;-2.556;2022-11-20T15:15:17;1.58;;;0.80;;
47025;SDS011;32783;51.756;-2.556;2022-11-20T15:18:03;2.92;;;0.70;;
47025;SDS011;32783;51.756;-2.556;2022-11-20T15:20:30;3.60;;;0.75;;
47025;SDS011;32783;51.756;-2.556;2022-11-20T15:22:56;2.83;;;0.73;;
47025;SDS011;32783;51.756;-2.556;2022-11-20T15:25:22;1.85;;;0.60;;
47025;SDS011;32783;51.756;-2.556;2022-11-20T15:27:50;6.00;;;1.63;;
47025;SDS011;32783;51.756;-2.556;2022-11-20T15:30:18;75.38;;;10.18;;
47025;SDS011;32783;51.756;-2.556;2022-11-20T15:32:45;16.23;;;2.25;;
47025;SDS011;32783;51.756;-2.556;2022-11-20T15:35:11;11.88;;;2.05;;
47025;SDS011;32783;51.756;-2.556;2022-11-20T15:37:37;17.38;;;3.65;;
47025;SDS011;32783;51.756;-2.556;2022-11-20T15:40:03;12.13;;;3.88;;
47025;SDS011;32783;51.756;-2.556;2022-11-20T15:42:29;12.45;;;3.20;;
47025;SDS011;32783;51.756;-2.556;2022-11-20T15:44:55;11.57;;;2.92;;
47025;SDS011;32783;51.756;-2.556;2022-11-20T15:47:20;19.35;;;3.20;;
47025;SDS011;32783;51.756;-2.556;2022-11-20T15:49:51;12.60;;;2.97;;
47025;SDS011;32783;51.756;-2.556;2022-11-20T15:52:16;8.48;;;2.28;;
47025;SDS011;32783;51.756;-2.556;2022-11-20T15:54:41;14.23;;;2.38;;
47025;SDS011;32783;51.756;-2.556;2022-11-20T15:57:07;11.93;;;2.53;;
47025;SDS011;32783;51.756;-2.556;2022-11-20T15:59:32;12.30;;;3.95;;
47025;SDS011;32783;51.756;-2.556;2022-11-20T16:01:58;16.80;;;3.75;;
47025;SDS011;32783;51.756;-2.556;2022-11-20T16:04:23;6.63;;;2.20;;
47025;SDS011;32783;51.756;-2.556;2022-11-20T16:06:48;8.35;;;2.63;;
47025;SDS011;32783;51.756;-2.556;2022-11-20T16:09:14;9.90;;;2.10;;
47025;SDS011;32783;51.756;-2.556;2022-11-20T16:11:39;6.43;;;1.70;;
47025;SDS011;32783;51.756;-2.556;2022-11-20T16:14:05;7.82;;;3.15;;
47025;SDS011;32783;51.756;-2.556;2022-11-20T16:16:49;5.90;;;1.90;;
47025;SDS011;32783;51.756;-2.556;2022-11-20T16:19:15;5.95;;;1.75;;
47025;SDS011;32783;51.756;-2.556;2022-11-20T16:21:41;9.80;;;1.80;;
47025;SDS011;32783;51.756;-2.556;2022-11-20T16:24:08;5.90;;;1.75;;
47025;SDS011;32783;51.756;-2.556;2022-11-20T16:26:35;7.47;;;1.88;;
47025;SDS011;32783;51.756;-2.556;2022-11-20T16:29:01;4.47;;;1.08;;
47025;SDS011;32783;51.756;-2.556;2022-11-20T16:31:28;8.57;;;1.65;;
47025;SDS011;32783;51.756;-2.556;2022-11-20T16:33:54;6.13;;;3.00;;
47025;SDS011;32783;51.756;-2.556;2022-11-20T16:36:22;6.13;;;1.40;;
47025;SDS011;32783;51.756;-2.556;2022-11-20T16:38:53;5.20;;;1.33;;
47025;SDS011;32783;51.756;-2.556;2022-11-20T16:41:19;3.75;;;1.10;;
47025;SDS011;32783;51.756;-2.556;2022-11-20T16:43:45;4.53;;;1.48;;
47025;SDS011;32783;51.756;-2.556;2022-11-20T16:46:12;6.88;;;1.63;;